Time;durP1;ratioP1;P1;durP2;ratioP2;P2;SDS_P1;SDS_P2;PMS_P1;PMS_P2;Temp;Humidity;BMP_temperature;BMP_pressure;BME280_temperature;BME280_humidity;BME280_pressure;Samples;Min_cycle;Max_cycle;Signal;HPM_P1;HPM_P2
2023/07/14 00:00:08;;;;;;;0.30;0.30;;;;;;;19.10;61.22;99729.22;337567;28;4856;-71
2023/07/14 00:00:24;;;;;;;0.43;0.30;;;;;;;19.10;61.13;99729.22;335751;28;17650;-71
2023/07/14 00:00:39;;;;;;;0.35;0.30;;;;;;;19.09;61.13;99732.81;332861;28;5568;-71
2023/07/14 00:00:51;;;;;;;0.40;0.40;;;;;;;19.10;61.04;99729.22;333121;28;18787;-71
2023/07/14 00:01:03;;;;;;;0.40;0.40;;;;;;;19.09;61.17;99727.53;338706;28;4590;-70
2023/07/14 00:01:22;;;;;;;0.40;0.40;;;;;;;19.08;61.29;99728.50;336145;28;18380;-71
2023/07/14 00:01:35;;;;;;;0.57;0.57;;;;;;;19.07;61.52;99726.78;336599;28;17749;-71
2023/07/14 00:01:47;;;;;;;0.40;0.40;;;;;;;19.04;61.67;99732.28;336164;28;18131;-71
2023/07/14 00:01:59;;;;;;;0.30;0.30;;;;;;;19.04;61.89;99727.00;337664;28;4451;-71
2023/07/14 00:02:16;;;;;;;0.38;0.38;;;;;;;19.06;61.79;99726.91;331782;28;17908;-71
2023/07/14 00:02:28;;;;;;;0.40;0.40;;;;;;;19.04;62.23;99724.38;336457;28;17816;-71
2023/07/14 00:02:41;;;;;;;0.30;0.30;;;;;;;19.03;61.87;99724.47;340400;28;11864;-71
2023/07/14 00:02:54;;;;;;;0.30;0.30;;;;;;;19.04;61.91;99724.38;342639;28;4627;-71
2023/07/14 00:03:07;;;;;;;0.38;0.38;;;;;;;19.03;61.93;99730.56;339569;28;11672;-71
2023/07/14 00:03:20;;;;;;;0.50;0.40;;;;;;;19.02;62.08;99725.44;341689;28;5270;-71
2023/07/14 00:03:32;;;;;;;0.90;0.57;;;;;;;19.02;62.08;99728.91;337941;28;5814;-72
2023/07/14 00:03:44;;;;;;;0.90;0.50;;;;;;;19.02;62.14;99726.28;340090;28;5265;-71
2023/07/14 00:03:56;;;;;;;0.90;0.43;;;;;;;19.02;61.91;99731.53;338849;28;12247;-71
2023/07/14 00:04:11;;;;;;;0.80;0.50;;;;;;;19.01;62.12;99729.84;341283;28;5049;-71
2023/07/14 00:04:31;;;;;;;0.80;0.60;;;;;;;19.03;61.92;99722.66;338098;28;18064;-70
2023/07/14 00:04:43;;;;;;;0.57;0.45;;;;;;;19.02;62.30;99726.28;335919;28;17601;-70
2023/07/14 00:04:55;;;;;;;0.40;0.40;;;;;;;19.04;62.00;99728.81;337803;28;5404;-71
2023/07/14 00:05:13;;;;;;;0.40;0.40;;;;;;;19.06;61.94;99727.75;333633;28;18099;-71
2023/07/14 00:05:29;;;;;;;1.10;0.40;;;;;;;19.07;61.69;99726.78;336408;28;17701;-70
2023/07/14 00:05:41;;;;;;;1.20;0.40;;;;;;;19.07;61.47;99724.16;337719;28;17740;-71
2023/07/14 00:05:53;;;;;;;0.50;0.50;;;;;;;19.07;61.36;99724.16;334648;28;18622;-71
2023/07/14 00:06:05;;;;;;;0.40;0.40;;;;;;;19.08;61.25;99720.59;337906;28;5246;-70
2023/07/14 00:06:18;;;;;;;0.30;0.30;;;;;;;19.07;61.59;99726.78;337853;28;11786;-70
2023/07/14 00:06:30;;;;;;;0.43;0.43;;;;;;;19.06;61.33;99727.75;335448;28;18028;-71
2023/07/14 00:06:44;;;;;;;0.47;0.47;;;;;;;19.05;61.37;99726.03;338683;28;4679;-70
2023/07/14 00:06:56;;;;;;;0.60;0.60;;;;;;;19.04;61.34;99729.66;334823;28;17780;-71
2023/07/14 00:07:12;;;;;;;0.50;0.50;;;;;;;19.04;61.27;99728.81;336642;28;5177;-71
2023/07/14 00:07:24;;;;;;;0.60;0.40;;;;;;;19.02;61.50;99721.00;335477;28;17787;-71
2023/07/14 00:07:36;;;;;;;0.73;0.52;;;;;;;19.00;62.12;99727.31;338445;28;5318;-71
2023/07/14 00:07:50;;;;;;;0.65;0.50;;;;;;;18.99;62.09;99720.34;335357;28;5459;-71
2023/07/14 00:08:05;;;;;;;0.75;0.50;;;;;;;18.95;63.07;99724.97;337442;28;4528;-71
2023/07/14 00:08:18;;;;;;;0.63;0.47;;;;;;;18.94;62.73;99718.03;331172;28;17695;-70
2023/07/14 00:08:32;;;;;;;0.43;0.43;;;;;;;18.95;62.90;99719.72;337435;28;18046;-71
2023/07/14 00:08:45;;;;;;;0.30;0.30;;;;;;;18.95;62.83;99719.72;337550;28;5002;-71
2023/07/14 00:08:57;;;;;;;0.30;0.30;;;;;;;18.94;62.76;99723.31;339746;28;5486;-71
2023/07/14 00:09:19;;;;;;;0.80;0.40;;;;;;;18.94;62.14;99721.50;339233;28;13011;-71
2023/07/14 00:09:32;;;;;;;1.90;0.75;;;;;;;18.95;62.03;99719.72;335683;28;17445;-71
2023/07/14 00:09:44;;;;;;;1.50;0.63;;;;;;;18.93;62.25;99718.97;339873;28;4519;-71
2023/07/14 00:09:56;;;;;;;0.90;0.50;;;;;;;18.94;62.48;99723.31;332862;28;5811;-71
2023/07/14 00:10:15;;;;;;;0.47;0.45;;;;;;;18.92;62.43;99712.03;337762;28;4603;-71
2023/07/14 00:10:33;;;;;;;0.70;0.50;;;;;;;18.92;62.15;99719.91;336085;28;17949;-71
2023/07/14 00:10:49;;;;;;;0.50;0.43;;;;;;;18.93;61.96;99717.19;337254;28;17527;-70
2023/07/14 00:11:01;;;;;;;0.90;0.40;;;;;;;18.93;61.99;99716.31;336182;28;16797;-70
2023/07/14 00:11:23;;;;;;;1.00;0.50;;;;;;;18.91;62.48;99720.84;338853;28;4556;-70
2023/07/14 00:11:35;;;;;;;0.40;0.40;;;;;;;18.93;62.72;99718.97;336438;28;16604;-70
2023/07/14 00:11:47;;;;;;;0.30;0.30;;;;;;;18.92;62.72;99719.91;333029;28;18375;-70
2023/07/14 00:12:00;;;;;;;0.30;0.30;;;;;;;18.89;63.12;99715.69;338163;28;4736;-72
2023/07/14 00:12:14;;;;;;;1.15;0.43;;;;;;;18.93;62.61;99726.88;335620;28;18009;-70
2023/07/14 00:12:26;;;;;;;1.50;0.50;;;;;;;18.94;62.35;99720.66;338844;28;5368;-71
2023/07/14 00:12:38;;;;;;;0.63;0.50;;;;;;;18.93;62.56;99721.59;336455;28;18163;-71
2023/07/14 00:12:51;;;;;;;0.32;0.32;;;;;;;18.88;62.76;99723.72;338470;28;4550;-71
2023/07/14 00:13:05;;;;;;;0.40;0.40;;;;;;;18.90;62.51;99729.72;335439;28;18372;-71
2023/07/14 00:13:17;;;;;;;0.70;0.70;;;;;;;18.89;62.42;99720.94;336131;28;16683;-71
2023/07/14 00:13:29;;;;;;;1.52;0.70;;;;;;;18.91;62.24;99718.22;339882;28;4787;-70
2023/07/14 00:13:42;;;;;;;1.40;0.40;;;;;;;18.90;62.20;99717.38;338797;28;11400;-71
2023/07/14 00:13:54;;;;;;;0.30;0.30;;;;;;;18.91;62.07;99718.22;337297;28;17409;-70
2023/07/14 00:14:06;;;;;;;0.30;0.30;;;;;;;18.90;62.09;99716.53;338738;28;4691;-71
2023/07/14 00:14:18;;;;;;;0.30;0.30;;;;;;;18.92;61.92;99719.91;338180;28;18009;-71
2023/07/14 00:14:30;;;;;;;0.30;0.30;;;;;;;18.90;61.88;99717.38;335876;28;18240;-71
2023/07/14 00:14:42;;;;;;;0.30;0.30;;;;;;;18.90;61.76;99720.03;338049;28;11617;-71
2023/07/14 00:14:54;;;;;;;0.40;0.40;;;;;;;18.89;61.57;99723.59;335334;28;17371;-71
2023/07/14 00:15:06;;;;;;;0.50;0.40;;;;;;;18.87;61.86;99720.22;336685;28;4530;-71
2023/07/14 00:15:23;;;;;;;0.52;0.43;;;;;;;18.86;61.79;99715.91;337196;28;18222;-70
2023/07/14 00:15:39;;;;;;;4.35;0.50;;;;;;;18.85;61.98;99726.53;335697;28;17925;-71
2023/07/14 00:15:52;;;;;;;5.00;0.50;;;;;;;18.84;61.90;99725.69;336237;28;17967;-71
2023/07/14 00:16:28;;;;;;;1.10;0.40;;;;;;;18.83;61.87;99720.50;332758;28;18080;-71
2023/07/14 00:16:40;;;;;;;0.60;0.60;;;;;;;18.81;61.93;99723.25;332636;28;17423;-71
2023/07/14 00:16:53;;;;;;;0.45;0.45;;;;;;;18.81;62.03;99725.03;337768;28;4561;-70
2023/07/14 00:17:12;;;;;;;0.32;0.32;;;;;;;18.79;61.97;99727.78;339917;28;5101;-70
2023/07/14 00:17:24;;;;;;;0.40;0.40;;;;;;;18.81;61.89;99722.41;336165;28;17476;-71
2023/07/14 00:17:37;;;;;;;0.57;0.57;;;;;;;18.80;62.18;99723.38;339935;28;5004;-70
2023/07/14 00:18:01;;;;;;;1.33;0.50;;;;;;;18.79;62.12;99724.25;333678;28;5298;-71
2023/07/14 00:18:19;;;;;;;0.30;0.30;;;;;;;18.77;62.08;99717.31;333736;28;17654;-71
2023/07/14 00:18:31;;;;;;;0.60;0.40;;;;;;;18.77;62.30;99727.84;333089;28;17497;-71
2023/07/14 00:18:43;;;;;;;0.70;0.40;;;;;;;18.77;62.37;99717.31;337086;28;4722;-71
2023/07/14 00:18:56;;;;;;;0.60;0.30;;;;;;;18.77;62.46;99725.22;333998;28;4866;-70
2023/07/14 00:19:13;;;;;;;0.30;0.30;;;;;;;18.75;63.02;99719.22;336477;28;17385;-70
2023/07/14 00:19:25;;;;;;;0.40;0.30;;;;;;;18.72;63.15;99722.03;332732;28;17955;-71
2023/07/14 00:19:38;;;;;;;0.35;0.30;;;;;;;18.73;63.85;99720.25;333199;28;18813;-71
2023/07/14 00:19:50;;;;;;;0.50;0.50;;;;;;;18.72;63.26;99719.41;334429;28;5765;-71
2023/07/14 00:20:14;;;;;;;0.60;0.60;;;;;;;18.71;63.04;99723.00;336986;28;4672;-70
2023/07/14 00:20:28;;;;;;;0.38;0.38;;;;;;;18.71;63.04;99720.38;336908;28;17315;-71
2023/07/14 00:20:40;;;;;;;0.35;0.35;;;;;;;18.73;63.31;99721.09;337975;28;17894;-70
2023/07/14 00:20:52;;;;;;;0.30;0.30;;;;;;;18.73;63.07;99720.25;337132;28;18077;-71
2023/07/14 00:21:05;;;;;;;0.40;0.40;;;;;;;18.74;62.96;99717.50;338803;28;4616;-71
2023/07/14 00:21:22;;;;;;;0.70;0.50;;;;;;;18.75;62.91;99724.47;335428;28;16036;-71
2023/07/14 00:21:34;;;;;;;0.70;0.60;;;;;;;18.75;63.10;99723.63;335763;28;17893;-70
2023/07/14 00:21:46;;;;;;;0.40;0.40;;;;;;;18.75;62.98;99718.34;338470;28;5985;-70
2023/07/14 00:21:58;;;;;;;0.40;0.40;;;;;;;18.76;62.85;99720.88;334520;28;18068;-70
2023/07/14 00:22:14;;;;;;;0.52;0.45;;;;;;;18.77;62.77;99722.59;338362;28;5223;-70
2023/07/14 00:22:27;;;;;;;0.80;0.50;;;;;;;18.78;62.80;99718.16;329957;28;18000;-71
2023/07/14 00:22:39;;;;;;;0.50;0.40;;;;;;;18.77;63.00;99717.31;337442;28;4677;-71
2023/07/14 00:22:52;;;;;;;0.93;0.40;;;;;;;18.78;62.75;99718.16;334448;28;12252;-71
2023/07/14 00:23:14;;;;;;;0.90;0.30;;;;;;;18.79;62.69;99719.00;336201;28;4669;-71
2023/07/14 00:23:26;;;;;;;0.85;0.35;;;;;;;18.79;62.77;99724.25;336955;28;17866;-71
2023/07/14 00:23:37;;;;;;;0.88;0.45;;;;;;;18.79;62.79;99719.88;340027;28;16651;-71
2023/07/14 00:23:55;;;;;;;0.70;0.40;;;;;;;18.80;62.78;99715.47;336401;28;17566;-71
2023/07/14 00:24:13;;;;;;;0.30;0.30;;;;;;;18.81;62.39;99714.50;334382;28;17515;-71
2023/07/14 00:24:26;;;;;;;0.40;0.40;;;;;;;18.81;62.39;99717.13;335303;28;17969;-71
2023/07/14 00:24:38;;;;;;;0.60;0.50;;;;;;;18.83;62.31;99717.88;336374;28;5170;-71
2023/07/14 00:24:50;;;;;;;0.50;0.50;;;;;;;18.81;62.67;99717.97;338952;28;4621;-71
2023/07/14 00:25:04;;;;;;;0.25;0.25;;;;;;;18.79;62.84;99721.63;339551;28;4702;-71
2023/07/14 00:25:17;;;;;;;0.30;0.30;;;;;;;18.74;63.32;99717.50;332064;28;18118;-71
2023/07/14 00:25:29;;;;;;;0.30;0.30;;;;;;;18.73;63.36;99721.09;336463;28;18212;-71
2023/07/14 00:25:42;;;;;;;0.30;0.30;;;;;;;18.72;63.63;99727.31;338349;28;4681;-70
2023/07/14 00:25:54;;;;;;;0.40;0.40;;;;;;;18.70;63.44;99726.56;335859;28;18117;-70
2023/07/14 00:26:13;;;;;;;0.40;0.40;;;;;;;18.72;63.34;99724.66;338573;28;4828;-70
2023/07/14 00:26:29;;;;;;;0.95;0.57;;;;;;;18.69;63.25;99719.63;334657;28;17088;-71
2023/07/14 00:26:45;;;;;;;1.23;0.60;;;;;;;18.71;62.99;99723.00;335216;28;17854;-71
2023/07/14 00:26:59;;;;;;;0.85;0.57;;;;;;;18.72;63.28;99723.84;330392;28;17909;-70
2023/07/14 00:27:17;;;;;;;0.75;0.50;;;;;;;18.71;63.12;99719.50;335131;28;17779;-72
2023/07/14 00:27:29;;;;;;;0.60;0.60;;;;;;;18.71;63.09;99717.72;337276;28;17814;-70
2023/07/14 00:27:42;;;;;;;0.60;0.60;;;;;;;18.74;62.90;99722.78;339291;28;4528;-71
2023/07/14 00:27:56;;;;;;;0.40;0.40;;;;;;;18.72;62.99;99719.41;338724;28;4560;-70
2023/07/14 00:28:18;;;;;;;0.47;0.47;;;;;;;18.73;62.81;99721.09;328321;28;18977;-70
2023/07/14 00:28:30;;;;;;;0.40;0.40;;;;;;;18.73;62.90;99721.09;336343;28;17357;-71
2023/07/14 00:28:43;;;;;;;0.40;0.40;;;;;;;18.73;63.01;99721.09;339101;28;5268;-71
2023/07/14 00:28:55;;;;;;;0.52;0.40;;;;;;;18.71;63.15;99717.72;334930;28;17358;-71
2023/07/14 00:29:18;;;;;;;0.50;0.40;;;;;;;18.71;62.92;99723.00;338044;28;5782;-70
2023/07/14 00:29:37;;;;;;;0.43;0.43;;;;;;;18.73;62.93;99714.97;334974;28;17814;-71
2023/07/14 00:29:52;;;;;;;0.20;0.20;;;;;;;18.76;62.96;99714.78;332258;28;18101;-71
2023/07/14 00:30:14;;;;;;;0.30;0.30;;;;;;;18.73;63.04;99713.22;335080;28;17982;-70
2023/07/14 00:30:26;;;;;;;0.60;0.40;;;;;;;18.73;63.24;99715.84;335559;28;17536;-71
2023/07/14 00:30:39;;;;;;;0.80;0.40;;;;;;;18.74;63.33;99716.69;338476;28;5260;-70
2023/07/14 00:30:51;;;;;;;0.60;0.50;;;;;;;18.72;63.42;99714.13;335967;28;18892;-71
2023/07/14 00:31:04;;;;;;;0.70;0.50;;;;;;;18.73;63.16;99717.59;338836;28;4649;-70
2023/07/14 00:31:19;;;;;;;0.40;0.40;;;;;;;18.74;63.12;99716.69;336911;28;17451;-71
2023/07/14 00:31:31;;;;;;;0.70;0.40;;;;;;;18.74;63.04;99712.25;336888;28;16631;-71
2023/07/14 00:31:43;;;;;;;0.90;0.55;;;;;;;18.73;63.63;99713.22;338963;28;4688;-70
2023/07/14 00:31:59;;;;;;;0.80;0.55;;;;;;;18.72;63.55;99713.31;334546;28;18207;-70
2023/07/14 00:32:17;;;;;;;0.70;0.50;;;;;;;18.71;63.43;99709.84;335062;28;17854;-70
2023/07/14 00:32:29;;;;;;;0.43;0.40;;;;;;;18.72;63.66;99714.13;335261;28;17933;-71
2023/07/14 00:32:42;;;;;;;0.43;0.38;;;;;;;18.72;63.22;99716.78;332772;28;4772;-70
2023/07/14 00:32:55;;;;;;;0.47;0.47;;;;;;;18.71;63.47;99717.72;336277;28;18063;-71
2023/07/14 00:33:19;;;;;;;0.50;0.50;;;;;;;18.74;63.11;99712.25;331635;28;4761;-71
2023/07/14 00:33:31;;;;;;;0.68;0.52;;;;;;;18.74;62.87;99712.25;336129;28;17764;-71
2023/07/14 00:33:46;;;;;;;1.42;0.80;;;;;;;18.79;62.80;99713.72;334642;28;16849;-71
2023/07/14 00:33:58;;;;;;;1.30;0.60;;;;;;;18.75;63.05;99706.06;335193;28;17751;-71
2023/07/14 00:34:10;;;;;;;0.45;0.32;;;;;;;18.77;63.04;99712.06;338468;28;5212;-71
2023/07/14 00:34:23;;;;;;;0.45;0.38;;;;;;;18.77;63.24;99704.16;335795;28;18486;-71
2023/07/14 00:34:35;;;;;;;0.30;0.30;;;;;;;18.77;62.98;99716.47;337542;28;6622;-71
2023/07/14 00:34:47;;;;;;;0.40;0.40;;;;;;;18.77;62.89;99712.06;334846;28;18228;-71
2023/07/14 00:35:00;;;;;;;0.50;0.40;;;;;;;18.77;62.78;99701.53;335827;28;4527;-71
2023/07/14 00:35:21;;;;;;;0.90;0.40;;;;;;;18.73;63.10;99705.31;335322;28;18363;-71
2023/07/14 00:35:33;;;;;;;0.45;0.43;;;;;;;18.73;63.20;99707.94;335391;28;17992;-71
2023/07/14 00:35:47;;;;;;;0.40;0.40;;;;;;;18.73;63.04;99705.31;339305;28;4514;-71
2023/07/14 00:36:00;;;;;;;0.70;0.50;;;;;;;18.76;62.79;99707.72;332048;28;17957;-70
2023/07/14 00:36:12;;;;;;;0.80;0.50;;;;;;;18.75;62.90;99703.41;340310;28;4604;-70
2023/07/14 00:36:24;;;;;;;0.73;0.40;;;;;;;18.75;62.87;99706.06;336893;28;17752;-71
2023/07/14 00:36:36;;;;;;;0.50;0.40;;;;;;;18.74;62.59;99706.97;339671;28;4662;-70
2023/07/14 00:36:48;;;;;;;0.40;0.35;;;;;;;18.74;62.87;99704.34;336864;28;13788;-70
2023/07/14 00:37:00;;;;;;;0.60;0.50;;;;;;;18.75;62.63;99708.69;339888;28;5026;-71
2023/07/14 00:37:13;;;;;;;0.65;0.57;;;;;;;18.75;62.70;99707.81;339067;28;4518;-71
2023/07/14 00:37:25;;;;;;;0.80;0.70;;;;;;;18.77;62.54;99700.66;335388;28;18520;-71
2023/07/14 00:37:37;;;;;;;0.60;0.60;;;;;;;18.74;62.57;99706.97;338614;28;5096;-70
2023/07/14 00:37:51;;;;;;;0.50;0.50;;;;;;;18.74;62.53;99704.34;335976;28;18330;-71
2023/07/14 00:38:03;;;;;;;0.50;0.50;;;;;;;18.74;62.45;99706.16;337469;28;11612;-71
2023/07/14 00:38:15;;;;;;;0.43;0.40;;;;;;;18.72;62.37;99703.59;336762;28;18770;-70
2023/07/14 00:38:27;;;;;;;0.35;0.35;;;;;;;18.71;62.47;99707.19;339583;28;4679;-71
2023/07/14 00:38:39;;;;;;;0.63;0.45;;;;;;;18.73;62.41;99699.16;336827;28;19075;-71
2023/07/14 00:38:51;;;;;;;0.90;0.50;;;;;;;18.73;62.58;99709.72;333522;28;5252;-70
2023/07/14 00:39:03;;;;;;;0.60;0.40;;;;;;;18.71;62.45;99704.56;339039;28;4556;-70
2023/07/14 00:39:15;;;;;;;0.75;0.50;;;;;;;18.70;62.55;99700.22;333484;28;18226;-70
2023/07/14 00:39:27;;;;;;;0.50;0.50;;;;;;;18.70;62.84;99710.75;336721;28;4718;-70
2023/07/14 00:39:40;;;;;;;0.57;0.52;;;;;;;18.69;62.62;99705.59;336400;28;11751;-71
2023/07/14 00:39:52;;;;;;;1.67;0.47;;;;;;;18.68;62.63;99707.38;337976;28;4503;-71
2023/07/14 00:40:06;;;;;;;1.63;0.50;;;;;;;18.69;62.47;99706.44;336076;28;12025;-71
2023/07/14 00:40:25;;;;;;;0.45;0.45;;;;;;;18.69;62.57;99702.94;339366;28;5236;-71
2023/07/14 00:40:41;;;;;;;1.80;0.50;;;;;;;18.69;62.55;99703.81;335962;28;17617;-71
2023/07/14 00:40:53;;;;;;;0.95;0.40;;;;;;;18.70;62.39;99709.94;336423;28;17854;-70
2023/07/14 00:41:14;;;;;;;1.20;0.50;;;;;;;18.68;62.53;99702.13;335967;28;4623;-70
2023/07/14 00:41:27;;;;;;;1.20;0.50;;;;;;;18.68;62.58;99710.03;336615;28;17310;-71
2023/07/14 00:41:39;;;;;;;0.43;0.40;;;;;;;18.68;62.48;99702.13;339025;28;4678;-70
2023/07/14 00:41:52;;;;;;;0.40;0.40;;;;;;;18.68;62.48;99704.75;336463;28;18136;-71
2023/07/14 00:42:07;;;;;;;0.50;0.40;;;;;;;18.69;62.48;99709.09;338811;28;4658;-71
2023/07/14 00:42:19;;;;;;;0.50;0.40;;;;;;;18.70;62.38;99705.50;334627;28;17998;-71
2023/07/14 00:42:32;;;;;;;0.63;0.40;;;;;;;18.69;62.15;99698.56;335250;28;5283;-71
2023/07/14 00:42:47;;;;;;;0.40;0.40;;;;;;;18.68;62.42;99702.13;337841;28;4476;-70
2023/07/14 00:42:59;;;;;;;0.47;0.47;;;;;;;18.69;62.34;99698.56;330726;28;17970;-71
2023/07/14 00:43:24;;;;;;;2.00;0.60;;;;;;;18.65;62.45;99702.34;337456;28;5108;-71
2023/07/14 00:43:37;;;;;;;2.88;1.40;;;;;;;18.61;62.47;99706.09;337601;28;16727;-71
2023/07/14 00:43:50;;;;;;;1.95;0.73;;;;;;;18.63;62.34;99704.19;337671;28;17186;-71
2023/07/14 00:44:02;;;;;;;0.52;0.43;;;;;;;18.63;62.15;99704.19;336401;28;17768;-71
2023/07/14 00:44:15;;;;;;;0.50;0.47;;;;;;;18.59;61.92;99702.69;338511;28;4564;-71
2023/07/14 00:44:28;;;;;;;0.63;0.50;;;;;;;18.60;62.09;99704.41;336127;28;18032;-71
2023/07/14 00:44:40;;;;;;;0.60;0.50;;;;;;;18.60;62.08;99701.78;339604;28;4665;-71
2023/07/14 00:44:54;;;;;;;0.47;0.40;;;;;;;18.60;62.00;99704.41;340338;28;5455;-71
2023/07/14 00:45:14;;;;;;;0.77;0.50;;;;;;;18.58;62.27;99702.81;332503;28;18099;-70
2023/07/14 00:45:29;;;;;;;0.45;0.40;;;;;;;18.61;61.92;99702.63;335072;28;17793;-70
2023/07/14 00:45:41;;;;;;;0.65;0.60;;;;;;;18.59;62.15;99702.69;334960;28;18032;-70
2023/07/14 00:45:56;;;;;;;0.70;0.70;;;;;;;18.58;62.21;99701.03;335234;28;18104;-71
2023/07/14 00:46:21;;;;;;;0.77;0.60;;;;;;;18.54;62.44;99700.38;335073;28;17991;-71
2023/07/14 00:46:33;;;;;;;0.70;0.52;;;;;;;18.56;62.30;99705.56;336257;28;17261;-71
2023/07/14 00:46:46;;;;;;;0.68;0.60;;;;;;;18.56;62.37;99702.91;339049;28;4628;-70
2023/07/14 00:46:58;;;;;;;0.40;0.40;;;;;;;18.56;62.61;99708.19;338562;28;18499;-71
2023/07/14 00:47:26;;;;;;;0.40;0.40;;;;;;;18.52;62.86;99701.44;340906;28;5578;-71
2023/07/14 00:47:41;;;;;;;1.13;0.63;;;;;;;18.50;63.03;99698.88;337281;28;17372;-70
2023/07/14 00:47:57;;;;;;;1.27;0.65;;;;;;;18.48;63.57;99705.22;338420;28;18325;-70
2023/07/14 00:48:13;;;;;;;0.75;0.55;;;;;;;18.50;63.07;99704.16;339686;28;17262;-70
2023/07/14 00:48:29;;;;;;;1.10;0.55;;;;;;;18.49;63.17;99704.25;336953;28;18699;-71
2023/07/14 00:48:41;;;;;;;0.70;0.40;;;;;;;18.50;63.14;99705.94;336021;28;17933;-71
2023/07/14 00:48:57;;;;;;;0.40;0.40;;;;;;;18.51;63.15;99705.00;338468;28;5191;-71
2023/07/14 00:49:32;;;;;;;0.50;0.50;;;;;;;18.44;63.08;99698.44;335335;28;18168;-70
2023/07/14 00:49:45;;;;;;;0.40;0.40;;;;;;;18.47;62.66;99704.38;334442;28;17580;-70
2023/07/14 00:50:00;;;;;;;0.38;0.38;;;;;;;18.46;63.05;99701.81;337239;28;5330;-71
2023/07/14 00:50:22;;;;;;;0.40;0.40;;;;;;;18.48;62.93;99705.22;335302;28;18371;-70
2023/07/14 00:50:40;;;;;;;0.40;0.35;;;;;;;18.49;62.89;99706.88;336221;28;17953;-70
2023/07/14 00:51:12;;;;;;;0.83;0.57;;;;;;;18.51;63.03;99705.00;335890;28;17676;-70
2023/07/14 00:51:28;;;;;;;0.40;0.40;;;;;;;18.53;62.70;99711.00;335185;28;17200;-71
2023/07/14 00:51:40;;;;;;;0.60;0.60;;;;;;;18.53;62.64;99703.97;334780;28;19009;-71
2023/07/14 00:51:57;;;;;;;0.55;0.55;;;;;;;18.54;62.68;99712.72;339157;28;4667;-70
2023/07/14 00:52:32;;;;;;;0.40;0.40;;;;;;;18.47;62.44;99699.09;338684;28;17737;-71
2023/07/14 00:52:48;;;;;;;0.88;0.43;;;;;;;18.45;62.97;99702.75;336520;28;17715;-70
2023/07/14 00:53:05;;;;;;;0.82;0.50;;;;;;;18.45;62.55;99700.13;336030;28;17596;-71
2023/07/14 00:53:23;;;;;;;0.70;0.50;;;;;;;18.44;62.83;99701.09;332432;28;18325;-70
2023/07/14 00:53:38;;;;;;;0.60;0.50;;;;;;;18.44;63.03;99701.09;337972;28;17563;-70
2023/07/14 00:53:51;;;;;;;0.50;0.50;;;;;;;18.39;63.56;99695.25;339882;28;4743;-70
2023/07/14 00:54:04;;;;;;;0.40;0.40;;;;;;;18.38;63.29;99704.13;332718;28;18362;-71
2023/07/14 00:54:26;;;;;;;0.40;0.40;;;;;;;18.34;63.05;99704.28;340059;28;5404;-70
2023/07/14 00:54:42;;;;;;;0.55;0.55;;;;;;;18.36;62.98;99707.66;337270;28;17409;-71
2023/07/14 00:54:54;;;;;;;0.70;0.60;;;;;;;18.39;62.80;99703.16;336890;28;17921;-71
2023/07/14 00:55:34;;;;;;;0.80;0.60;;;;;;;18.34;63.03;99699.03;336540;28;16103;-71
2023/07/14 00:55:52;;;;;;;0.60;0.50;;;;;;;18.28;63.28;99696.78;336165;28;17351;-70
2023/07/14 00:56:10;;;;;;;0.45;0.43;;;;;;;18.29;62.95;99700.25;335988;28;18241;-70
2023/07/14 00:56:34;;;;;;;0.63;0.50;;;;;;;18.23;63.14;99701.53;337200;28;17784;-70
2023/07/14 00:56:49;;;;;;;1.73;0.60;;;;;;;18.21;63.10;99697.28;336118;28;16198;-71
2023/07/14 00:57:01;;;;;;;1.70;0.52;;;;;;;18.21;63.20;99698.16;335582;28;18073;-71
2023/07/14 00:57:16;;;;;;;4.28;0.50;;;;;;;18.20;62.80;99696.44;338907;28;4548;-71
2023/07/14 00:57:29;;;;;;;4.20;0.40;;;;;;;18.21;62.90;99700.78;336263;28;18050;-70
2023/07/14 00:57:41;;;;;;;0.45;0.28;;;;;;;18.20;62.87;99696.44;338931;28;4566;-70
2023/07/14 00:57:56;;;;;;;0.20;0.20;;;;;;;18.20;62.66;99696.44;336234;28;11304;-71
2023/07/14 00:58:18;;;;;;;0.50;0.32;;;;;;;18.24;62.65;99697.94;335774;28;11542;-70
2023/07/14 00:58:31;;;;;;;0.73;0.52;;;;;;;18.24;62.90;99692.66;334791;28;17488;-70
2023/07/14 00:58:45;;;;;;;0.50;0.50;;;;;;;18.24;63.01;99694.47;340118;28;5542;-70
2023/07/14 00:58:58;;;;;;;4.30;0.60;;;;;;;18.25;63.21;99697.00;336919;28;18185;-71
2023/07/14 00:59:17;;;;;;;4.20;0.40;;;;;;;18.23;63.36;99698.88;329538;28;16461;-70
2023/07/14 00:59:33;;;;;;;0.30;0.30;;;;;;;18.24;63.42;99694.47;337199;28;17839;-70
2023/07/14 00:59:46;;;;;;;0.40;0.40;;;;;;;18.19;63.78;99692.13;335999;28;17819;-70
2023/07/14 01:00:10;;;;;;;1.95;0.50;;;;;;;18.18;64.06;99695.69;338955;28;5638;-70
2023/07/14 01:00:30;;;;;;;0.63;0.40;;;;;;;18.16;63.86;99695.78;335419;28;17841;-70
2023/07/14 01:01:05;;;;;;;0.43;0.38;;;;;;;18.20;63.50;99695.59;334732;28;18733;-70
2023/07/14 01:01:25;;;;;;;0.50;0.40;;;;;;;18.19;63.39;99689.50;333365;28;18223;-70
2023/07/14 01:02:17;;;;;;;0.50;0.50;;;;;;;18.20;63.33;99692.97;334625;28;17566;-70
2023/07/14 01:02:29;;;;;;;0.40;0.40;;;;;;;18.23;63.06;99696.25;335047;28;19032;-70
2023/07/14 01:02:41;;;;;;;0.40;0.40;;;;;;;18.22;63.31;99697.19;338122;28;18034;-70
2023/07/14 01:02:55;;;;;;;0.55;0.55;;;;;;;18.21;63.57;99697.28;338572;28;4481;-71
2023/07/14 01:03:14;;;;;;;1.20;0.60;;;;;;;18.17;63.58;99692.22;331331;28;18156;-71
2023/07/14 01:03:27;;;;;;;1.17;0.60;;;;;;;18.17;63.42;99692.22;335157;28;17936;-71
2023/07/14 01:03:41;;;;;;;0.47;0.47;;;;;;;18.18;63.58;99690.44;337537;28;5074;-71
2023/07/14 01:03:56;;;;;;;1.00;0.40;;;;;;;18.16;63.59;99693.16;335274;28;18047;-70
2023/07/14 01:04:08;;;;;;;1.00;0.35;;;;;;;18.17;63.97;99696.66;335156;28;17743;-71
2023/07/14 01:04:20;;;;;;;0.40;0.40;;;;;;;18.17;63.74;99694.03;336471;28;11666;-70
2023/07/14 01:04:32;;;;;;;0.40;0.40;;;;;;;18.16;63.59;99700.22;335470;28;17610;-70
2023/07/14 01:04:52;;;;;;;0.90;0.50;;;;;;;18.16;63.46;99694.94;332745;28;4513;-70
2023/07/14 01:05:07;;;;;;;1.10;0.47;;;;;;;18.16;63.29;99694.94;335251;28;17557;-71
2023/07/14 01:05:19;;;;;;;0.47;0.47;;;;;;;18.17;63.32;99696.66;334855;28;18359;-70
2023/07/14 01:05:32;;;;;;;0.57;0.57;;;;;;;18.18;63.16;99698.31;339559;28;4520;-70
2023/07/14 01:05:44;;;;;;;0.57;0.50;;;;;;;18.18;63.24;99698.31;337444;28;18123;-71
2023/07/14 01:06:00;;;;;;;0.47;0.40;;;;;;;18.17;63.57;99696.66;337206;28;11888;-71
2023/07/14 01:06:32;;;;;;;0.40;0.40;;;;;;;18.17;63.50;99697.50;339355;28;4941;-71
2023/07/14 01:06:45;;;;;;;0.50;0.50;;;;;;;18.17;63.13;99697.50;337142;28;17349;-71
2023/07/14 01:06:58;;;;;;;0.60;0.40;;;;;;;18.20;63.28;99695.59;337246;28;11748;-70
2023/07/14 01:07:12;;;;;;;0.55;0.40;;;;;;;18.17;63.42;99704.53;339760;28;5361;-70
2023/07/14 01:07:31;;;;;;;0.40;0.40;;;;;;;18.17;63.12;99702.75;336246;28;18252;-71
2023/07/14 01:07:46;;;;;;;0.45;0.43;;;;;;;18.13;63.56;99696.00;338282;28;18800;-70
2023/07/14 01:07:58;;;;;;;0.60;0.50;;;;;;;18.12;63.42;99698.72;335580;28;17750;-71
2023/07/14 01:08:10;;;;;;;0.50;0.40;;;;;;;18.13;63.82;99697.78;336148;28;17894;-70
2023/07/14 01:08:23;;;;;;;0.40;0.40;;;;;;;18.10;64.01;99697.97;339046;28;4522;-70
2023/07/14 01:08:41;;;;;;;0.47;0.45;;;;;;;18.10;63.71;99697.97;332732;28;17573;-71
2023/07/14 01:08:57;;;;;;;0.50;0.50;;;;;;;18.10;63.77;99700.59;337921;28;17534;-71
2023/07/14 01:09:12;;;;;;;1.00;0.70;;;;;;;18.10;63.68;99700.59;336024;28;18794;-71
2023/07/14 01:09:24;;;;;;;1.10;0.70;;;;;;;18.07;64.22;99695.50;334987;28;11497;-71
2023/07/14 01:09:37;;;;;;;0.57;0.47;;;;;;;18.07;63.90;99695.50;333049;28;5303;-71
2023/07/14 01:09:52;;;;;;;0.98;0.50;;;;;;;18.09;63.87;99701.53;335141;28;11888;-70
2023/07/14 01:10:08;;;;;;;0.80;0.40;;;;;;;18.08;64.01;99697.22;335090;28;16006;-70
2023/07/14 01:10:24;;;;;;;0.38;0.38;;;;;;;18.09;63.70;99698.91;336327;28;17834;-70
2023/07/14 01:10:37;;;;;;;0.40;0.40;;;;;;;18.09;64.07;99693.63;336297;28;17838;-70
2023/07/14 01:10:49;;;;;;;0.52;0.40;;;;;;;18.10;63.88;99698.81;335488;28;4657;-71
2023/07/14 01:11:03;;;;;;;0.52;0.50;;;;;;;18.10;64.02;99692.72;334505;28;18188;-70
2023/07/14 01:11:18;;;;;;;0.50;0.50;;;;;;;18.07;64.29;99695.50;332071;28;18077;-71
2023/07/14 01:11:35;;;;;;;0.43;0.40;;;;;;;18.08;64.06;99691.97;334673;28;17809;-71
2023/07/14 01:11:54;;;;;;;0.38;0.30;;;;;;;18.10;63.81;99696.16;334388;28;17875;-70